sensor_id;sensor_type;location;lat;lon;timestamp;P1;durP1;ratioP1;P2;durP2;ratioP2
12567;SDS011;6349;50.904;6.136;2023-09-07T00:01:17;4.50;;;4.10;;
12567;SDS011;6349;50.904;6.136;2023-09-07T00:03:18;4.72;;;4.32;;
12567;SDS011;6349;50.904;6.136;2023-09-07T00:05:18;4.70;;;4.30;;
12567;SDS011;6349;50.904;6.136;2023-09-07T00:07:19;4.70;;;4.30;;
12567;SDS011;6349;50.904;6.136;2023-09-07T00:09:20;6.13;;;4.60;;
12567;SDS011;6349;50.904;6.136;2023-09-07T00:11:22;4.65;;;4.25;;
12567;SDS011;6349;50.904;6.136;2023-09-07T00:13:22;6.00;;;4.63;;
12567;SDS011;6349;50.904;6.136;2023-09-07T00:15:23;4.80;;;4.10;;
12567;SDS011;6349;50.904;6.136;2023-09-07T00:17:26;5.35;;;4.75;;
12567;SDS011;6349;50.904;6.136;2023-09-07T00:19:26;4.50;;;4.05;;
12567;SDS011;6349;50.904;6.136;2023-09-07T00:21:27;5.75;;;4.68;;
12567;SDS011;6349;50.904;6.136;2023-09-07T00:23:28;4.82;;;4.20;;
12567;SDS011;6349;50.904;6.136;2023-09-07T00:25:29;5.88;;;4.40;;
12567;SDS011;6349;50.904;6.136;2023-09-07T00:27:30;6.38;;;4.45;;
12567;SDS011;6349;50.904;6.136;2023-09-07T00:29:30;5.20;;;4.70;;
12567;SDS011;6349;50.904;6.136;2023-09-07T00:31:31;5.95;;;4.63;;
12567;SDS011;6349;50.904;6.136;2023-09-07T00:33:32;4.97;;;4.20;;
12567;SDS011;6349;50.904;6.136;2023-09-07T00:35:33;5.10;;;4.60;;
12567;SDS011;6349;50.904;6.136;2023-09-07T00:37:34;6.50;;;4.20;;
12567;SDS011;6349;50.904;6.136;2023-09-07T00:39:35;5.68;;;4.20;;
12567;SDS011;6349;50.904;6.136;2023-09-07T00:41:35;7.78;;;4.65;;
12567;SDS011;6349;50.904;6.136;2023-09-07T00:43:36;5.03;;;4.40;;
12567;SDS011;6349;50.904;6.136;2023-09-07T00:45:37;5.97;;;4.35;;
12567;SDS011;6349;50.904;6.136;2023-09-07T00:47:38;5.25;;;4.20;;
12567;SDS011;6349;50.904;6.136;2023-09-07T00:49:39;5.85;;;4.55;;
12567;SDS011;6349;50.904;6.136;2023-09-07T00:51:40;4.90;;;4.20;;
12567;SDS011;6349;50.904;6.136;2023-09-07T00:53:41;5.03;;;4.50;;
12567;SDS011;6349;50.904;6.136;2023-09-07T00:55:42;4.97;;;4.57;;
12567;SDS011;6349;50.904;6.136;2023-09-07T00:57:43;4.95;;;4.07;;
12567;SDS011;6349;50.904;6.136;2023-09-07T00:59:43;6.13;;;4.57;;
12567;SDS011;6349;50.904;6.136;2023-09-07T01:01:44;4.78;;;4.20;;
12567;SDS011;6349;50.904;6.136;2023-09-07T01:03:44;4.50;;;4.10;;
12567;SDS011;6349;50.904;6.136;2023-09-07T01:08:03;5.72;;;4.40;;
12567;SDS011;6349;50.904;6.136;2023-09-07T01:10:11;5.20;;;4.53;;
12567;SDS011;6349;50.904;6.136;2023-09-07T01:12:13;5.50;;;5.00;;
12567;SDS011;6349;50.904;6.136;2023-09-07T01:14:15;5.93;;;4.75;;
12567;SDS011;6349;50.904;6.136;2023-09-07T01:16:15;6.30;;;4.60;;
12567;SDS011;6349;50.904;6.136;2023-09-07T01:18:16;5.15;;;4.65;;
12567;SDS011;6349;50.904;6.136;2023-09-07T01:20:18;7.10;;;5.00;;
12567;SDS011;6349;50.904;6.136;2023-09-07T01:22:21;5.60;;;5.07;;
12567;SDS011;6349;50.904;6.136;2023-09-07T01:24:24;5.68;;;4.80;;
12567;SDS011;6349;50.904;6.136;2023-09-07T01:26:26;6.15;;;5.28;;
12567;SDS011;6349;50.904;6.136;2023-09-07T01:28:27;8.82;;;5.30;;
12567;SDS011;6349;50.904;6.136;2023-09-07T01:30:28;7.05;;;4.97;;
12567;SDS011;6349;50.904;6.136;2023-09-07T01:32:28;7.25;;;4.82;;
12567;SDS011;6349;50.904;6.136;2023-09-07T01:34:29;6.57;;;5.32;;
12567;SDS011;6349;50.904;6.136;2023-09-07T01:36:29;5.40;;;4.90;;
12567;SDS011;6349;50.904;6.136;2023-09-07T01:38:30;7.28;;;5.63;;
12567;SDS011;6349;50.904;6.136;2023-09-07T01:40:31;4.85;;;4.35;;
12567;SDS011;6349;50.904;6.136;2023-09-07T01:42:31;6.70;;;4.78;;
12567;SDS011;6349;50.904;6.136;2023-09-07T01:44:32;5.85;;;5.28;;
12567;SDS011;6349;50.904;6.136;2023-09-07T01:46:32;7.80;;;4.80;;
12567;SDS011;6349;50.904;6.136;2023-09-07T01:48:33;7.55;;;5.05;;
12567;SDS011;6349;50.904;6.136;2023-09-07T01:50:34;6.00;;;5.05;;
12567;SDS011;6349;50.904;6.136;2023-09-07T01:52:35;6.25;;;5.28;;
12567;SDS011;6349;50.904;6.136;2023-09-07T01:54:35;6.32;;;5.30;;
12567;SDS011;6349;50.904;6.136;2023-09-07T01:56:36;5.63;;;5.00;;
12567;SDS011;6349;50.904;6.136;2023-09-07T01:58:37;5.40;;;4.90;;
12567;SDS011;6349;50.904;6.136;2023-09-07T02:00:37;7.88;;;5.60;;
12567;SDS011;6349;50.904;6.136;2023-09-07T02:02:38;5.05;;;4.65;;
12567;SDS011;6349;50.904;6.136;2023-09-07T02:04:39;5.10;;;4.70;;
12567;SDS011;6349;50.904;6.136;2023-09-07T02:06:40;5.95;;;4.88;;
12567;SDS011;6349;50.904;6.136;2023-09-07T02:08:41;5.50;;;4.60;;
12567;SDS011;6349;50.904;6.136;2023-09-07T02:10:41;4.97;;;4.57;;
12567;SDS011;6349;50.904;6.136;2023-09-07T02:12:42;5.82;;;5.22;;
12567;SDS011;6349;50.904;6.136;2023-09-07T02:14:45;5.40;;;4.90;;
12567;SDS011;6349;50.904;6.136;2023-09-07T02:16:46;6.43;;;4.68;;
12567;SDS011;6349;50.904;6.136;2023-09-07T02:18:48;5.63;;;4.82;;
12567;SDS011;6349;50.904;6.136;2023-09-07T02:20:49;5.40;;;4.82;;
12567;SDS011;6349;50.904;6.136;2023-09-07T02:22:50;5.57;;;4.50;;
12567;SDS011;6349;50.904;6.136;2023-09-07T02:24:51;4.97;;;4.47;;
12567;SDS011;6349;50.904;6.136;2023-09-07T02:26:52;5.63;;;4.80;;
12567;SDS011;6349;50.904;6.136;2023-09-07T02:28:52;6.07;;;4.65;;
12567;SDS011;6349;50.904;6.136;2023-09-07T02:30:53;5.03;;;4.53;;
12567;SDS011;6349;50.904;6.136;2023-09-07T02:32:54;4.70;;;4.30;;
12567;SDS011;6349;50.904;6.136;2023-09-07T02:34:54;7.88;;;5.05;;
12567;SDS011;6349;50.904;6.136;2023-09-07T02:36:55;7.07;;;4.78;;
12567;SDS011;6349;50.904;6.136;2023-09-07T02:38:57;5.45;;;4.95;;
12567;SDS011;6349;50.904;6.136;2023-09-07T02:40:57;5.53;;;4.75;;
12567;SDS011;6349;50.904;6.136;2023-09-07T02:42:58;6.07;;;4.57;;
12567;SDS011;6349;50.904;6.136;2023-09-07T02:44:58;6.15;;;4.90;;
12567;SDS011;6349;50.904;6.136;2023-09-07T02:46:59;5.47;;;5.05;;
12567;SDS011;6349;50.904;6.136;2023-09-07T02:48:59;5.38;;;4.88;;
12567;SDS011;6349;50.904;6.136;2023-09-07T02:51:00;5.65;;;5.10;;
12567;SDS011;6349;50.904;6.136;2023-09-07T02:53:01;6.95;;;5.10;;
12567;SDS011;6349;50.904;6.136;2023-09-07T02:55:03;5.80;;;5.20;;
12567;SDS011;6349;50.904;6.136;2023-09-07T02:57:04;5.50;;;5.00;;
12567;SDS011;6349;50.904;6.136;2023-09-07T02:59:04;5.30;;;4.80;;
12567;SDS011;6349;50.904;6.136;2023-09-07T03:01:05;7.28;;;5.00;;
12567;SDS011;6349;50.904;6.136;2023-09-07T03:03:08;6.38;;;5.10;;
12567;SDS011;6349;50.904;6.136;2023-09-07T03:05:09;5.63;;;5.13;;
12567;SDS011;6349;50.904;6.136;2023-09-07T03:07:10;7.03;;;5.10;;
12567;SDS011;6349;50.904;6.136;2023-09-07T03:09:10;5.35;;;4.85;;
12567;SDS011;6349;50.904;6.136;2023-09-07T03:11:11;6.10;;;5.07;;
12567;SDS011;6349;50.904;6.136;2023-09-07T03:13:12;5.38;;;4.88;;
12567;SDS011;6349;50.904;6.136;2023-09-07T03:15:12;6.32;;;4.85;;
12567;SDS011;6349;50.904;6.136;2023-09-07T03:17:13;5.95;;;4.88;;
12567;SDS011;6349;50.904;6.136;2023-09-07T03:19:13;7.75;;;4.90;;
12567;SDS011;6349;50.904;6.136;2023-09-07T03:21:14;5.35;;;4.85;;
12567;SDS011;6349;50.904;6.136;2023-09-07T03:23:14;5.75;;;5.25;;
12567;SDS011;6349;50.904;6.136;2023-09-07T03:25:15;6.63;;;5.00;;
12567;SDS011;6349;50.904;6.136;2023-09-07T03:27:16;6.35;;;4.88;;
12567;SDS011;6349;50.904;6.136;2023-09-07T03:29:16;5.30;;;4.55;;
12567;SDS011;6349;50.904;6.136;2023-09-07T03:31:17;5.72;;;5.13;;
12567;SDS011;6349;50.904;6.136;2023-09-07T03:33:17;7.50;;;6.05;;
12567;SDS011;6349;50.904;6.136;2023-09-07T03:35:18;5.70;;;5.00;;
12567;SDS011;6349;50.904;6.136;2023-09-07T03:37:19;6.25;;;4.90;;
12567;SDS011;6349;50.904;6.136;2023-09-07T03:39:19;5.28;;;4.75;;
12567;SDS011;6349;50.904;6.136;2023-09-07T03:41:22;7.72;;;5.22;;
12567;SDS011;6349;50.904;6.136;2023-09-07T03:43:22;7.20;;;5.03;;
12567;SDS011;6349;50.904;6.136;2023-09-07T03:45:23;5.78;;;4.82;;
12567;SDS011;6349;50.904;6.136;2023-09-07T03:47:24;5.50;;;4.80;;
12567;SDS011;6349;50.904;6.136;2023-09-07T03:49:28;5.93;;;4.60;;
12567;SDS011;6349;50.904;6.136;2023-09-07T03:51:29;7.65;;;4.88;;
12567;SDS011;6349;50.904;6.136;2023-09-07T03:53:29;5.28;;;4.38;;
12567;SDS011;6349;50.904;6.136;2023-09-07T03:55:33;6.10;;;4.68;;
12567;SDS011;6349;50.904;6.136;2023-09-07T03:57:40;5.90;;;4.90;;
12567;SDS011;6349;50.904;6.136;2023-09-07T03:59:41;5.30;;;4.70;;
12567;SDS011;6349;50.904;6.136;2023-09-07T04:01:42;6.00;;;4.65;;
12567;SDS011;6349;50.904;6.136;2023-09-07T04:03:44;7.13;;;5.05;;
12567;SDS011;6349;50.904;6.136;2023-09-07T04:05:44;7.38;;;5.00;;
12567;SDS011;6349;50.904;6.136;2023-09-07T04:07:45;7.53;;;5.10;;
12567;SDS011;6349;50.904;6.136;2023-09-07T04:09:45;8.88;;;5.18;;
12567;SDS011;6349;50.904;6.136;2023-09-07T04:11:46;8.00;;;4.95;;
12567;SDS011;6349;50.904;6.136;2023-09-07T04:13:47;6.88;;;5.07;;
12567;SDS011;6349;50.904;6.136;2023-09-07T04:15:48;7.93;;;5.20;;
12567;SDS011;6349;50.904;6.136;2023-09-07T04:17:50;10.85;;;5.20;;
12567;SDS011;6349;50.904;6.136;2023-09-07T04:19:50;6.32;;;4.82;;
12567;SDS011;6349;50.904;6.136;2023-09-07T04:21:51;9.88;;;4.95;;
12567;SDS011;6349;50.904;6.136;2023-09-07T04:23:51;9.98;;;4.95;;
12567;SDS011;6349;50.904;6.136;2023-09-07T04:25:52;8.52;;;5.30;;
12567;SDS011;6349;50.904;6.136;2023-09-07T04:27:52;10.40;;;4.80;;
12567;SDS011;6349;50.904;6.136;2023-09-07T04:29:53;7.18;;;4.65;;
12567;SDS011;6349;50.904;6.136;2023-09-07T04:31:53;7.72;;;5.40;;
12567;SDS011;6349;50.904;6.136;2023-09-07T04:33:54;7.10;;;4.93;;
12567;SDS011;6349;50.904;6.136;2023-09-07T04:35:55;6.68;;;4.63;;
12567;SDS011;6349;50.904;6.136;2023-09-07T04:37:55;6.75;;;5.38;;
12567;SDS011;6349;50.904;6.136;2023-09-07T04:39:56;6.22;;;5.20;;
12567;SDS011;6349;50.904;6.136;2023-09-07T04:41:57;6.95;;;5.18;;
12567;SDS011;6349;50.904;6.136;2023-09-07T04:43:57;7.47;;;4.80;;
12567;SDS011;6349;50.904;6.136;2023-09-07T04:45:58;9.18;;;5.40;;
12567;SDS011;6349;50.904;6.136;2023-09-07T04:47:58;7.32;;;5.13;;
12567;SDS011;6349;50.904;6.136;2023-09-07T04:49:59;6.65;;;4.82;;
12567;SDS011;6349;50.904;6.136;2023-09-07T04:51:59;6.10;;;5.05;;
12567;SDS011;6349;50.904;6.136;2023-09-07T04:54:00;9.43;;;5.55;;
12567;SDS011;6349;50.904;6.136;2023-09-07T04:56:04;6.57;;;4.85;;
12567;SDS011;6349;50.904;6.136;2023-09-07T04:58:06;6.97;;;5.10;;
12567;SDS011;6349;50.904;6.136;2023-09-07T05:00:07;9.40;;;4.93;;
12567;SDS011;6349;50.904;6.136;2023-09-07T05:02:09;8.93;;;4.90;;
12567;SDS011;6349;50.904;6.136;2023-09-07T05:04:10;6.47;;;5.00;;
12567;SDS011;6349;50.904;6.136;2023-09-07T05:06:11;9.38;;;5.20;;
12567;SDS011;6349;50.904;6.136;2023-09-07T05:08:12;6.63;;;5.13;;
12567;SDS011;6349;50.904;6.136;2023-09-07T05:10:12;8.27;;;5.20;;
12567;SDS011;6349;50.904;6.136;2023-09-07T05:12:13;7.13;;;4.80;;
12567;SDS011;6349;50.904;6.136;2023-09-07T05:14:14;7.93;;;4.95;;
12567;SDS011;6349;50.904;6.136;2023-09-07T05:16:14;5.45;;;4.68;;
12567;SDS011;6349;50.904;6.136;2023-09-07T05:18:16;8.70;;;5.28;;
12567;SDS011;6349;50.904;6.136;2023-09-07T05:20:17;6.10;;;4.73;;
12567;SDS011;6349;50.904;6.136;2023-09-07T05:22:17;6.00;;;4.88;;
12567;SDS011;6349;50.904;6.136;2023-09-07T05:24:19;7.03;;;5.03;;
12567;SDS011;6349;50.904;6.136;2023-09-07T05:26:21;6.20;;;5.28;;
12567;SDS011;6349;50.904;6.136;2023-09-07T05:28:24;5.33;;;4.83;;
12567;SDS011;6349;50.904;6.136;2023-09-07T05:30:25;9.15;;;5.30;;
12567;SDS011;6349;50.904;6.136;2023-09-07T05:32:25;9.17;;;5.73;;
12567;SDS011;6349;50.904;6.136;2023-09-07T05:34:26;8.77;;;5.05;;
12567;SDS011;6349;50.904;6.136;2023-09-07T05:36:26;5.93;;;5.33;;
12567;SDS011;6349;50.904;6.136;2023-09-07T05:38:27;9.43;;;5.10;;
12567;SDS011;6349;50.904;6.136;2023-09-07T05:40:28;6.80;;;5.90;;
12567;SDS011;6349;50.904;6.136;2023-09-07T05:42:28;7.63;;;5.50;;
12567;SDS011;6349;50.904;6.136;2023-09-07T05:44:29;5.35;;;4.72;;
12567;SDS011;6349;50.904;6.136;2023-09-07T05:46:30;8.23;;;5.23;;
12567;SDS011;6349;50.904;6.136;2023-09-07T05:48:30;7.67;;;5.20;;
12567;SDS011;6349;50.904;6.136;2023-09-07T05:50:33;5.43;;;4.90;;
12567;SDS011;6349;50.904;6.136;2023-09-07T05:52:34;5.90;;;5.30;;
12567;SDS011;6349;50.904;6.136;2023-09-07T05:54:35;8.13;;;5.30;;
12567;SDS011;6349;50.904;6.136;2023-09-07T05:56:35;5.80;;;5.03;;
12567;SDS011;6349;50.904;6.136;2023-09-07T05:58:36;5.47;;;4.97;;
12567;SDS011;6349;50.904;6.136;2023-09-07T06:00:36;5.82;;;5.22;;
12567;SDS011;6349;50.904;6.136;2023-09-07T06:02:39;5.63;;;4.73;;
12567;SDS011;6349;50.904;6.136;2023-09-07T06:04:39;5.68;;;5.18;;
12567;SDS011;6349;50.904;6.136;2023-09-07T06:06:40;7.60;;;4.72;;
12567;SDS011;6349;50.904;6.136;2023-09-07T06:08:40;10.37;;;5.40;;
12567;SDS011;6349;50.904;6.136;2023-09-07T06:10:41;8.75;;;5.00;;
12567;SDS011;6349;50.904;6.136;2023-09-07T06:12:42;8.95;;;5.07;;
12567;SDS011;6349;50.904;6.136;2023-09-07T06:14:42;6.23;;;5.57;;
12567;SDS011;6349;50.904;6.136;2023-09-07T06:16:44;7.82;;;5.07;;
12567;SDS011;6349;50.904;6.136;2023-09-07T06:18:44;6.95;;;5.22;;
12567;SDS011;6349;50.904;6.136;2023-09-07T06:20:46;7.97;;;5.15;;
12567;SDS011;6349;50.904;6.136;2023-09-07T06:22:47;6.60;;;4.75;;
12567;SDS011;6349;50.904;6.136;2023-09-07T06:24:49;6.60;;;5.50;;
12567;SDS011;6349;50.904;6.136;2023-09-07T06:26:49;7.43;;;5.03;;
12567;SDS011;6349;50.904;6.136;2023-09-07T06:28:50;5.65;;;5.03;;
12567;SDS011;6349;50.904;6.136;2023-09-07T06:30:51;8.82;;;5.05;;
12567;SDS011;6349;50.904;6.136;2023-09-07T06:32:51;7.10;;;4.90;;
12567;SDS011;6349;50.904;6.136;2023-09-07T06:34:53;6.85;;;4.97;;
12567;SDS011;6349;50.904;6.136;2023-09-07T06:36:53;5.88;;;5.28;;
12567;SDS011;6349;50.904;6.136;2023-09-07T06:38:54;7.85;;;5.07;;
12567;SDS011;6349;50.904;6.136;2023-09-07T06:40:54;6.15;;;5.40;;
12567;SDS011;6349;50.904;6.136;2023-09-07T06:42:55;5.35;;;4.80;;
12567;SDS011;6349;50.904;6.136;2023-09-07T06:44:56;7.25;;;4.90;;
12567;SDS011;6349;50.904;6.136;2023-09-07T06:46:57;8.43;;;4.97;;
12567;SDS011;6349;50.904;6.136;2023-09-07T06:48:58;6.35;;;4.93;;
12567;SDS011;6349;50.904;6.136;2023-09-07T06:51:02;7.05;;;5.28;;
12567;SDS011;6349;50.904;6.136;2023-09-07T06:53:04;8.98;;;5.20;;
12567;SDS011;6349;50.904;6.136;2023-09-07T06:55:04;7.28;;;5.15;;
12567;SDS011;6349;50.904;6.136;2023-09-07T06:57:08;6.22;;;4.57;;
12567;SDS011;6349;50.904;6.136;2023-09-07T06:59:08;5.13;;;4.38;;
12567;SDS011;6349;50.904;6.136;2023-09-07T07:01:09;7.82;;;5.03;;
12567;SDS011;6349;50.904;6.136;2023-09-07T07:03:09;7.32;;;4.60;;
12567;SDS011;6349;50.904;6.136;2023-09-07T07:05:10;7.53;;;4.55;;
12567;SDS011;6349;50.904;6.136;2023-09-07T07:07:11;5.30;;;4.80;;
12567;SDS011;6349;50.904;6.136;2023-09-07T07:09:11;5.85;;;4.50;;
12567;SDS011;6349;50.904;6.136;2023-09-07T07:11:12;6.32;;;4.38;;
12567;SDS011;6349;50.904;6.136;2023-09-07T07:13:12;6.00;;;4.80;;
12567;SDS011;6349;50.904;6.136;2023-09-07T07:15:13;7.88;;;4.68;;
12567;SDS011;6349;50.904;6.136;2023-09-07T07:17:13;7.45;;;4.55;;
12567;SDS011;6349;50.904;6.136;2023-09-07T07:19:14;6.78;;;4.18;;
12567;SDS011;6349;50.904;6.136;2023-09-07T07:21:14;6.43;;;4.28;;
12567;SDS011;6349;50.904;6.136;2023-09-07T07:23:15;5.75;;;4.38;;
12567;SDS011;6349;50.904;6.136;2023-09-07T07:25:16;7.07;;;4.53;;
12567;SDS011;6349;50.904;6.136;2023-09-07T07:27:17;7.32;;;4.50;;
12567;SDS011;6349;50.904;6.136;2023-09-07T07:29:17;8.05;;;4.50;;
12567;SDS011;6349;50.904;6.136;2023-09-07T07:31:18;8.77;;;4.55;;
12567;SDS011;6349;50.904;6.136;2023-09-07T07:33:19;10.95;;;4.53;;
12567;SDS011;6349;50.904;6.136;2023-09-07T07:35:20;9.18;;;4.40;;
12567;SDS011;6349;50.904;6.136;2023-09-07T07:37:20;5.10;;;4.18;;
12567;SDS011;6349;50.904;6.136;2023-09-07T07:39:21;5.95;;;4.13;;
12567;SDS011;6349;50.904;6.136;2023-09-07T07:41:22;4.63;;;4.22;;
12567;SDS011;6349;50.904;6.136;2023-09-07T07:43:22;8.57;;;4.28;;
12567;SDS011;6349;50.904;6.136;2023-09-07T07:45:23;6.18;;;4.00;;
12567;SDS011;6349;50.904;6.136;2023-09-07T07:47:23;3.65;;;3.35;;
12567;SDS011;6349;50.904;6.136;2023-09-07T07:49:26;4.97;;;3.72;;
12567;SDS011;6349;50.904;6.136;2023-09-07T07:51:27;7.97;;;3.97;;
12567;SDS011;6349;50.904;6.136;2023-09-07T07:53:28;9.45;;;4.15;;
12567;SDS011;6349;50.904;6.136;2023-09-07T07:55:28;6.85;;;3.72;;
12567;SDS011;6349;50.904;6.136;2023-09-07T07:57:29;6.75;;;3.53;;
12567;SDS011;6349;50.904;6.136;2023-09-07T07:59:33;7.20;;;3.80;;
12567;SDS011;6349;50.904;6.136;2023-09-07T08:01:33;5.95;;;4.53;;
12567;SDS011;6349;50.904;6.136;2023-09-07T08:03:34;6.25;;;3.70;;
12567;SDS011;6349;50.904;6.136;2023-09-07T08:05:35;9.02;;;3.75;;
12567;SDS011;6349;50.904;6.136;2023-09-07T08:07:35;4.10;;;3.60;;
12567;SDS011;6349;50.904;6.136;2023-09-07T08:09:36;4.40;;;3.72;;
12567;SDS011;6349;50.904;6.136;2023-09-07T08:11:36;4.70;;;3.22;;
12567;SDS011;6349;50.904;6.136;2023-09-07T08:13:39;5.10;;;3.75;;
12567;SDS011;6349;50.904;6.136;2023-09-07T08:15:40;6.50;;;3.60;;
12567;SDS011;6349;50.904;6.136;2023-09-07T08:17:41;4.35;;;3.53;;
12567;SDS011;6349;50.904;6.136;2023-09-07T08:19:42;6.38;;;3.42;;
12567;SDS011;6349;50.904;6.136;2023-09-07T08:21:43;8.32;;;3.58;;
12567;SDS011;6349;50.904;6.136;2023-09-07T08:23:45;4.35;;;3.33;;
12567;SDS011;6349;50.904;6.136;2023-09-07T08:25:46;6.75;;;3.65;;
12567;SDS011;6349;50.904;6.136;2023-09-07T08:27:47;5.75;;;3.45;;
12567;SDS011;6349;50.904;6.136;2023-09-07T08:29:47;6.35;;;3.83;;
12567;SDS011;6349;50.904;6.136;2023-09-07T08:31:51;7.20;;;3.42;;
12567;SDS011;6349;50.904;6.136;2023-09-07T08:33:52;9.35;;;4.05;;
12567;SDS011;6349;50.904;6.136;2023-09-07T08:35:55;7.03;;;3.80;;
12567;SDS011;6349;50.904;6.136;2023-09-07T08:37:56;6.13;;;3.80;;
12567;SDS011;6349;50.904;6.136;2023-09-07T08:39:58;4.38;;;3.70;;
12567;SDS011;6349;50.904;6.136;2023-09-07T08:41:59;5.32;;;3.60;;
12567;SDS011;6349;50.904;6.136;2023-09-07T08:44:00;5.88;;;3.60;;
12567;SDS011;6349;50.904;6.136;2023-09-07T08:46:20;6.13;;;3.50;;
12567;SDS011;6349;50.904;6.136;2023-09-07T08:48:23;8.15;;;3.95;;
12567;SDS011;6349;50.904;6.136;2023-09-07T08:50:25;7.25;;;3.53;;
12567;SDS011;6349;50.904;6.136;2023-09-07T08:52:27;4.88;;;3.38;;
12567;SDS011;6349;50.904;6.136;2023-09-07T08:54:28;4.72;;;3.45;;
12567;SDS011;6349;50.904;6.136;2023-09-07T08:56:29;6.47;;;3.63;;
12567;SDS011;6349;50.904;6.136;2023-09-07T08:58:30;3.97;;;3.53;;
12567;SDS011;6349;50.904;6.136;2023-09-07T09:00:32;3.80;;;3.40;;
12567;SDS011;6349;50.904;6.136;2023-09-07T09:02:33;5.07;;;3.70;;
12567;SDS011;6349;50.904;6.136;2023-09-07T09:04:33;4.10;;;3.53;;
12567;SDS011;6349;50.904;6.136;2023-09-07T09:06:35;4.55;;;3.80;;
12567;SDS011;6349;50.904;6.136;2023-09-07T09:08:45;6.65;;;3.63;;
12567;SDS011;6349;50.904;6.136;2023-09-07T09:11:01;4.55;;;3.53;;
12567;SDS011;6349;50.904;6.136;2023-09-07T09:13:05;4.07;;;3.47;;
12567;SDS011;6349;50.904;6.136;2023-09-07T09:15:06;6.38;;;3.50;;
12567;SDS011;6349;50.904;6.136;2023-09-07T09:17:10;4.43;;;3.17;;
12567;SDS011;6349;50.904;6.136;2023-09-07T09:19:14;4.50;;;3.40;;
12567;SDS011;6349;50.904;6.136;2023-09-07T09:21:15;3.50;;;3.20;;
12567;SDS011;6349;50.904;6.136;2023-09-07T09:23:16;7.68;;;3.40;;
12567;SDS011;6349;50.904;6.136;2023-09-07T09:25:17;5.28;;;3.45;;
12567;SDS011;6349;50.904;6.136;2023-09-07T09:27:18;4.40;;;3.45;;
12567;SDS011;6349;50.904;6.136;2023-09-07T09:29:22;6.90;;;3.42;;
12567;SDS011;6349;50.904;6.136;2023-09-07T09:31:23;4.55;;;3.40;;
12567;SDS011;6349;50.904;6.136;2023-09-07T09:33:24;5.43;;;3.50;;
12567;SDS011;6349;50.904;6.136;2023-09-07T09:35:26;4.13;;;3.25;;
12567;SDS011;6349;50.904;6.136;2023-09-07T09:37:27;6.32;;;3.45;;
12567;SDS011;6349;50.904;6.136;2023-09-07T09:39:27;5.80;;;3.65;;
12567;SDS011;6349;50.904;6.136;2023-09-07T09:41:30;5.35;;;3.60;;
12567;SDS011;6349;50.904;6.136;2023-09-07T09:43:33;7.13;;;3.58;;
12567;SDS011;6349;50.904;6.136;2023-09-07T09:45:34;7.22;;;3.78;;
12567;SDS011;6349;50.904;6.136;2023-09-07T09:47:38;4.18;;;3.63;;
12567;SDS011;6349;50.904;6.136;2023-09-07T09:49:40;8.55;;;3.85;;
12567;SDS011;6349;50.904;6.136;2023-09-07T09:51:41;5.55;;;3.30;;
12567;SDS011;6349;50.904;6.136;2023-09-07T09:53:42;5.35;;;3.40;;
12567;SDS011;6349;50.904;6.136;2023-09-07T09:55:43;6.47;;;3.78;;
12567;SDS011;6349;50.904;6.136;2023-09-07T09:57:52;7.25;;;3.40;;
12567;SDS011;6349;50.904;6.136;2023-09-07T09:59:58;5.65;;;3.80;;
12567;SDS011;6349;50.904;6.136;2023-09-07T10:01:59;6.47;;;3.60;;
12567;SDS011;6349;50.904;6.136;2023-09-07T10:04:02;5.45;;;3.53;;
12567;SDS011;6349;50.904;6.136;2023-09-07T10:06:09;6.43;;;3.63;;
12567;SDS011;6349;50.904;6.136;2023-09-07T10:08:22;4.10;;;3.70;;
12567;SDS011;6349;50.904;6.136;2023-09-07T10:10:22;6.03;;;3.58;;
12567;SDS011;6349;50.904;6.136;2023-09-07T10:12:26;4.15;;;3.40;;
12567;SDS011;6349;50.904;6.136;2023-09-07T10:14:37;6.07;;;3.50;;
12567;SDS011;6349;50.904;6.136;2023-09-07T10:16:45;8.60;;;3.60;;
12567;SDS011;6349;50.904;6.136;2023-09-07T10:18:47;6.22;;;3.50;;
12567;SDS011;6349;50.904;6.136;2023-09-07T10:20:57;3.95;;;3.42;;
12567;SDS011;6349;50.904;6.136;2023-09-07T10:23:04;5.40;;;3.60;;
12567;SDS011;6349;50.904;6.136;2023-09-07T10:25:05;7.60;;;3.58;;
12567;SDS011;6349;50.904;6.136;2023-09-07T10:27:12;3.85;;;3.30;;
12567;SDS011;6349;50.904;6.136;2023-09-07T10:29:12;5.10;;;3.50;;
12567;SDS011;6349;50.904;6.136;2023-09-07T10:31:13;4.30;;;3.90;;
12567;SDS011;6349;50.904;6.136;2023-09-07T10:33:19;3.80;;;3.17;;
12567;SDS011;6349;50.904;6.136;2023-09-07T10:35:20;6.75;;;3.55;;
12567;SDS011;6349;50.904;6.136;2023-09-07T10:37:27;4.78;;;3.55;;
12567;SDS011;6349;50.904;6.136;2023-09-07T10:39:32;4.00;;;3.00;;
12567;SDS011;6349;50.904;6.136;2023-09-07T10:41:42;6.05;;;3.60;;
12567;SDS011;6349;50.904;6.136;2023-09-07T10:43:47;5.28;;;3.63;;
12567;SDS011;6349;50.904;6.136;2023-09-07T10:45:48;6.30;;;3.63;;
12567;SDS011;6349;50.904;6.136;2023-09-07T10:47:48;4.30;;;3.20;;
12567;SDS011;6349;50.904;6.136;2023-09-07T10:49:49;4.47;;;3.25;;
12567;SDS011;6349;50.904;6.136;2023-09-07T10:51:50;4.63;;;3.55;;
12567;SDS011;6349;50.904;6.136;2023-09-07T10:53:50;5.05;;;3.78;;
12567;SDS011;6349;50.904;6.136;2023-09-07T10:55:51;4.80;;;3.53;;
12567;SDS011;6349;50.904;6.136;2023-09-07T10:57:51;4.13;;;3.70;;
12567;SDS011;6349;50.904;6.136;2023-09-07T10:59:52;5.07;;;3.35;;
12567;SDS011;6349;50.904;6.136;2023-09-07T11:01:55;6.10;;;3.65;;
12567;SDS011;6349;50.904;6.136;2023-09-07T11:04:04;6.80;;;4.03;;
12567;SDS011;6349;50.904;6.136;2023-09-07T11:06:12;5.65;;;3.38;;
12567;SDS011;6349;50.904;6.136;2023-09-07T11:08:22;6.35;;;3.28;;
12567;SDS011;6349;50.904;6.136;2023-09-07T11:10:23;4.40;;;3.45;;
12567;SDS011;6349;50.904;6.136;2023-09-07T11:12:23;4.90;;;3.15;;
12567;SDS011;6349;50.904;6.136;2023-09-07T11:14:28;5.97;;;3.53;;
12567;SDS011;6349;50.904;6.136;2023-09-07T11:16:29;5.32;;;3.05;;
12567;SDS011;6349;50.904;6.136;2023-09-07T11:18:31;3.25;;;2.97;;
12567;SDS011;6349;50.904;6.136;2023-09-07T11:20:35;5.25;;;3.30;;
12567;SDS011;6349;50.904;6.136;2023-09-07T11:22:36;5.38;;;3.47;;
12567;SDS011;6349;50.904;6.136;2023-09-07T11:24:40;5.88;;;3.25;;
12567;SDS011;6349;50.904;6.136;2023-09-07T11:26:44;5.18;;;3.47;;
12567;SDS011;6349;50.904;6.136;2023-09-07T11:28:46;5.53;;;3.33;;
12567;SDS011;6349;50.904;6.136;2023-09-07T11:30:50;4.50;;;3.20;;
12567;SDS011;6349;50.904;6.136;2023-09-07T11:32:59;3.42;;;3.13;;
12567;SDS011;6349;50.904;6.136;2023-09-07T11:35:07;6.57;;;3.80;;
12567;SDS011;6349;50.904;6.136;2023-09-07T11:37:09;6.25;;;3.47;;
12567;SDS011;6349;50.904;6.136;2023-09-07T11:39:10;8.63;;;3.58;;
12567;SDS011;6349;50.904;6.136;2023-09-07T11:41:12;3.70;;;3.35;;
12567;SDS011;6349;50.904;6.136;2023-09-07T11:43:13;3.92;;;3.15;;
12567;SDS011;6349;50.904;6.136;2023-09-07T11:45:14;6.53;;;3.42;;
12567;SDS011;6349;50.904;6.136;2023-09-07T11:47:15;5.80;;;3.47;;
12567;SDS011;6349;50.904;6.136;2023-09-07T11:49:16;7.78;;;3.33;;
12567;SDS011;6349;50.904;6.136;2023-09-07T11:51:20;6.60;;;3.50;;
12567;SDS011;6349;50.904;6.136;2023-09-07T11:53:21;9.75;;;3.85;;
12567;SDS011;6349;50.904;6.136;2023-09-07T11:55:22;10.20;;;4.20;;
12567;SDS011;6349;50.904;6.136;2023-09-07T11:57:22;6.13;;;3.78;;
12567;SDS011;6349;50.904;6.136;2023-09-07T11:59:23;8.68;;;3.72;;
12567;SDS011;6349;50.904;6.136;2023-09-07T12:01:23;5.95;;;3.53;;
12567;SDS011;6349;50.904;6.136;2023-09-07T12:03:26;8.23;;;3.85;;
12567;SDS011;6349;50.904;6.136;2023-09-07T12:05:26;6.22;;;3.25;;
12567;SDS011;6349;50.904;6.136;2023-09-07T12:07:27;7.55;;;3.78;;
12567;SDS011;6349;50.904;6.136;2023-09-07T12:09:27;3.63;;;3.33;;
12567;SDS011;6349;50.904;6.136;2023-09-07T12:11:28;5.03;;;3.50;;
12567;SDS011;6349;50.904;6.136;2023-09-07T12:13:29;3.47;;;3.17;;
12567;SDS011;6349;50.904;6.136;2023-09-07T12:15:29;7.90;;;3.83;;
12567;SDS011;6349;50.904;6.136;2023-09-07T12:17:30;5.13;;;3.30;;
12567;SDS011;6349;50.904;6.136;2023-09-07T12:19:31;5.88;;;3.05;;
12567;SDS011;6349;50.904;6.136;2023-09-07T12:21:33;7.72;;;3.22;;
12567;SDS011;6349;50.904;6.136;2023-09-07T12:23:33;3.72;;;3.15;;
12567;SDS011;6349;50.904;6.136;2023-09-07T12:25:34;5.18;;;3.10;;